createdAt,value
2022-10-24T00:01:10.569Z,13.82
2022-10-24T00:03:37.302Z,8.63
2022-10-24T00:06:07.384Z,6.65
2022-10-24T00:08:36.004Z,8.18
2022-10-24T00:11:02.814Z,4.53
2022-10-24T00:13:29.591Z,2.63
2022-10-24T00:15:56.418Z,5.15
2022-10-24T00:18:23.078Z,5.30
2022-10-24T00:20:49.736Z,4.00
2022-10-24T00:23:16.416Z,8.15
2022-10-24T00:25:43.057Z,2.22
2022-10-24T00:28:09.754Z,4.97
2022-10-24T00:30:36.370Z,3.67
2022-10-24T00:33:03.067Z,5.45
2022-10-24T00:35:30.168Z,10.32
2022-10-24T00:37:56.828Z,6.57
2022-10-24T00:40:23.809Z,3.75
2022-10-24T00:42:50.678Z,8.15
2022-10-24T00:45:40.373Z,4.43
2022-10-24T00:48:15.666Z,8.77
2022-10-24T00:50:43.030Z,12.02
2022-10-24T00:53:09.836Z,5.45
2022-10-24T00:55:37.716Z,6.18
2022-10-24T00:58:07.058Z,11.18
2022-10-24T01:00:34.607Z,5.40
2022-10-24T01:03:02.201Z,3.97
2022-10-24T01:05:36.471Z,2.85
2022-10-24T01:08:31.535Z,7.38
2022-10-24T01:11:10.637Z,6.53
2022-10-24T01:13:54.592Z,2.42
2022-10-24T01:16:36.289Z,4.60
2022-10-24T01:19:30.825Z,6.38
2022-10-24T01:22:03.371Z,8.93
2022-10-24T01:24:39.225Z,4.43
2022-10-24T01:27:05.943Z,6.82
2022-10-24T01:29:47.456Z,6.15
2022-10-24T01:32:21.489Z,4.60
2022-10-24T01:34:57.264Z,8.20
2022-10-24T01:38:02.164Z,2.25
2022-10-24T01:40:41.691Z,9.63
2022-10-24T01:43:13.997Z,17.25
2022-10-24T01:45:45.094Z,5.32
2022-10-24T01:48:16.688Z,6.65
2022-10-24T01:50:46.139Z,8.52
2022-10-24T01:53:14.040Z,2.53
2022-10-24T01:55:42.234Z,9.52
2022-10-24T01:58:08.996Z,5.25
2022-10-24T02:00:36.011Z,3.03
2022-10-24T02:03:17.634Z,5.72
2022-10-24T02:05:53.247Z,2.70
2022-10-24T02:08:25.623Z,4.47
2022-10-24T02:10:56.472Z,2.25
2022-10-24T02:13:27.709Z,5.80
2022-10-24T02:15:58.824Z,6.18
2022-10-24T02:18:26.259Z,10.05
2022-10-24T02:21:06.143Z,6.70
2022-10-24T02:23:46.119Z,12.02
2022-10-24T02:26:35.783Z,3.15
2022-10-24T02:29:09.099Z,4.32
2022-10-24T02:31:41.224Z,12.85
2022-10-24T02:34:09.680Z,11.43
2022-10-24T02:36:39.241Z,8.43
2022-10-24T02:39:08.492Z,6.50
2022-10-24T02:41:38.124Z,6.95
2022-10-24T02:44:06.109Z,4.50
2022-10-24T02:46:34.536Z,5.47
2022-10-24T02:49:03.102Z,10.88
2022-10-24T02:51:34.386Z,7.35
2022-10-24T02:54:02.138Z,6.85
2022-10-24T02:56:29.760Z,12.57
2022-10-24T02:58:56.575Z,6.07
2022-10-24T03:01:23.517Z,5.30
2022-10-24T03:03:50.622Z,7.30
2022-10-24T03:06:17.635Z,5.45
2022-10-24T03:08:44.407Z,8.65
2022-10-24T03:11:11.138Z,12.80
2022-10-24T03:13:37.837Z,2.80
2022-10-24T03:16:06.794Z,6.57
2022-10-24T03:18:35.890Z,10.65
2022-10-24T03:21:02.538Z,3.42
2022-10-24T03:23:29.338Z,6.95
2022-10-24T03:25:57.403Z,3.20
2022-10-24T03:28:24.171Z,5.60
2022-10-24T03:30:51.202Z,14.18
2022-10-24T03:33:17.986Z,9.55
2022-10-24T03:35:45.645Z,2.60
2022-10-24T03:38:12.296Z,7.57
2022-10-24T03:40:39.099Z,10.25
2022-10-24T03:43:05.822Z,7.38
2022-10-24T03:45:32.509Z,15.43
2022-10-24T03:47:59.165Z,10.18
2022-10-24T03:50:26.327Z,9.00
2022-10-24T03:52:53.028Z,5.07
2022-10-24T03:55:19.814Z,3.85
2022-10-24T03:57:47.918Z,3.75
2022-10-24T04:00:14.982Z,12.20
2022-10-24T04:02:43.844Z,7.60
2022-10-24T04:05:11.222Z,5.43
2022-10-24T04:07:37.868Z,9.95
2022-10-24T04:10:06.341Z,8.07
2022-10-24T04:12:33.518Z,9.63
2022-10-24T04:15:03.951Z,8.18
2022-10-24T04:17:32.875Z,8.00
2022-10-24T04:19:59.651Z,8.00
2022-10-24T04:22:26.359Z,7.57
2022-10-24T04:24:53.047Z,3.08
2022-10-24T04:27:19.722Z,6.13
2022-10-24T04:29:46.548Z,5.00
2022-10-24T04:32:13.284Z,9.13
2022-10-24T04:34:40.018Z,4.80
2022-10-24T04:37:06.734Z,14.23
2022-10-24T04:39:33.458Z,7.55
2022-10-24T04:42:00.083Z,8.48
2022-10-24T04:44:26.918Z,2.72
2022-10-24T04:46:53.546Z,13.43
2022-10-24T04:49:20.296Z,7.32
2022-10-24T04:51:47.030Z,6.57
2022-10-24T04:54:13.723Z,2.72
2022-10-24T04:56:40.384Z,7.30
2022-10-24T04:59:07.086Z,26.15
2022-10-24T05:01:33.849Z,14.88
2022-10-24T05:06:32.088Z,7.30
2022-10-24T05:08:58.792Z,9.32
2022-10-24T05:11:25.469Z,5.72
2022-10-24T05:13:52.288Z,14.57
2022-10-24T05:16:18.936Z,4.80
2022-10-24T05:18:45.669Z,9.77
2022-10-24T05:21:12.682Z,6.97
2022-10-24T05:23:39.294Z,5.28
2022-10-24T05:26:05.935Z,9.13
2022-10-24T05:28:33.502Z,7.90
2022-10-24T05:31:00.299Z,7.72
2022-10-24T05:33:27.135Z,9.77
2022-10-24T05:35:53.920Z,5.18
2022-10-24T05:38:20.612Z,5.10
2022-10-24T05:40:49.302Z,10.35
2022-10-24T05:43:16.486Z,6.20
2022-10-24T05:45:43.452Z,6.53
2022-10-24T05:48:10.249Z,8.82
2022-10-24T05:50:36.970Z,3.72
2022-10-24T05:53:03.877Z,8.30
2022-10-24T05:55:31.433Z,7.20
2022-10-24T05:57:58.076Z,4.65
2022-10-24T06:00:24.673Z,11.13
2022-10-24T06:02:51.473Z,4.15
2022-10-24T06:05:19.809Z,12.50
2022-10-24T06:07:47.530Z,5.85
2022-10-24T06:10:14.624Z,8.20
2022-10-24T06:12:41.729Z,13.80
2022-10-24T06:15:09.804Z,6.25
2022-10-24T06:17:36.564Z,9.35
2022-10-24T06:20:04.311Z,10.23
2022-10-24T06:22:31.115Z,11.15
2022-10-24T06:24:57.802Z,6.72
2022-10-24T06:27:24.712Z,8.60
2022-10-24T06:29:51.395Z,10.13
2022-10-24T06:32:18.417Z,11.23
2022-10-24T06:34:44.996Z,4.05
2022-10-24T06:37:11.642Z,9.82
2022-10-24T06:39:38.342Z,5.28
2022-10-24T06:42:04.966Z,9.27
2022-10-24T06:44:31.578Z,3.70
2022-10-24T06:46:58.249Z,9.52
2022-10-24T06:49:24.880Z,6.13
2022-10-24T06:51:51.508Z,5.30
2022-10-24T06:54:18.169Z,13.23
2022-10-24T06:56:44.873Z,5.57
2022-10-24T06:59:14.208Z,8.70
2022-10-24T07:01:41.068Z,11.80
2022-10-24T07:04:08.209Z,12.30
2022-10-24T07:06:35.445Z,8.05
2022-10-24T07:09:04.282Z,9.48
2022-10-24T07:11:31.381Z,10.45
2022-10-24T07:14:00.935Z,5.82
2022-10-24T07:16:29.119Z,8.40
2022-10-24T07:18:56.474Z,4.43
2022-10-24T07:21:29.319Z,4.97
2022-10-24T07:23:56.960Z,4.75
2022-10-24T07:26:25.673Z,8.63
2022-10-24T07:28:58.578Z,13.90
2022-10-24T07:31:28.263Z,11.23
2022-10-24T07:33:55.518Z,11.77
2022-10-24T07:36:24.481Z,6.13
2022-10-24T07:38:52.926Z,9.63
2022-10-24T07:41:19.571Z,8.35
2022-10-24T07:43:46.613Z,9.65
2022-10-24T07:46:15.820Z,10.73
2022-10-24T07:48:42.647Z,14.77
2022-10-24T07:51:12.307Z,12.18
2022-10-24T07:53:39.302Z,11.07
2022-10-24T07:56:09.480Z,9.63
2022-10-24T07:58:37.499Z,8.10
2022-10-24T08:01:06.337Z,14.23
2022-10-24T08:03:33.053Z,16.42
2022-10-24T08:06:00.648Z,11.52
2022-10-24T08:08:36.248Z,5.53
2022-10-24T08:11:16.228Z,6.85
2022-10-24T08:13:43.243Z,8.20
2022-10-24T08:16:11.900Z,4.40
2022-10-24T08:18:39.942Z,4.70
2022-10-24T08:21:09.711Z,6.72
2022-10-24T08:23:38.637Z,6.30
2022-10-24T08:26:07.473Z,4.60
2022-10-24T08:28:34.583Z,9.55
2022-10-24T08:31:07.152Z,4.30
2022-10-24T08:33:34.842Z,11.00
2022-10-24T08:36:05.939Z,5.47
2022-10-24T08:38:33.081Z,7.30
2022-10-24T08:41:00.407Z,9.70
2022-10-24T08:43:27.418Z,11.50
2022-10-24T08:46:06.161Z,8.77
2022-10-24T08:48:41.828Z,6.25
2022-10-24T08:51:25.223Z,14.13
2022-10-24T08:53:54.280Z,5.72
2022-10-24T08:56:21.146Z,13.80
2022-10-24T08:58:51.959Z,17.90
2022-10-24T09:01:41.414Z,16.33
2022-10-24T09:04:11.916Z,12.85
2022-10-24T09:06:38.916Z,10.13
2022-10-24T09:09:19.284Z,13.18
2022-10-24T09:11:52.407Z,7.22
2022-10-24T09:14:20.953Z,12.48
2022-10-24T09:16:55.981Z,13.43
2022-10-24T09:19:26.213Z,5.10
2022-10-24T09:21:55.173Z,5.68
2022-10-24T09:24:30.094Z,9.38
2022-10-24T09:26:57.232Z,8.15
2022-10-24T09:29:24.423Z,11.23
2022-10-24T09:31:51.166Z,8.55
2022-10-24T09:34:17.792Z,7.03
2022-10-24T09:36:45.211Z,10.93
2022-10-24T09:39:32.895Z,7.18
2022-10-24T09:42:00.982Z,7.60
2022-10-24T09:44:43.947Z,14.55
2022-10-24T09:47:26.952Z,5.80
2022-10-24T09:49:54.636Z,11.75
2022-10-24T09:52:24.689Z,7.05
2022-10-24T09:55:18.084Z,9.30
2022-10-24T09:57:45.266Z,10.25
2022-10-24T10:00:27.672Z,8.75
2022-10-24T10:03:01.993Z,5.88
2022-10-24T10:05:42.797Z,7.57
2022-10-24T10:08:12.599Z,5.40
2022-10-24T10:10:40.168Z,7.45
2022-10-24T10:13:23.371Z,5.40
2022-10-24T10:15:54.513Z,10.70
2022-10-24T10:18:32.625Z,3.65
2022-10-24T10:20:59.292Z,16.38
2022-10-24T10:23:33.144Z,8.95
2022-10-24T10:26:07.622Z,14.70
2022-10-24T10:28:41.435Z,11.98
2022-10-24T10:31:10.553Z,10.70
2022-10-24T10:33:50.390Z,9.05
2022-10-24T10:36:22.791Z,4.32
2022-10-24T10:39:03.048Z,11.18
2022-10-24T10:41:52.273Z,7.55
2022-10-24T10:44:55.863Z,12.98
2022-10-24T10:47:42.722Z,9.20
2022-10-24T10:50:21.280Z,10.93
2022-10-24T10:52:49.309Z,7.65
2022-10-24T10:55:22.230Z,8.70
2022-10-24T10:58:00.295Z,4.95
2022-10-24T11:00:46.301Z,4.07
2022-10-24T11:03:43.332Z,6.22
2022-10-24T11:06:43.422Z,15.43
2022-10-24T11:09:27.921Z,10.68
2022-10-24T11:12:08.888Z,10.18
2022-10-24T11:14:43.315Z,6.95
2022-10-24T11:17:21.920Z,5.03
2022-10-24T11:20:00.930Z,3.70
2022-10-24T11:22:35.721Z,10.70
2022-10-24T11:28:13.301Z,5.80
2022-10-24T11:30:52.198Z,9.00
2022-10-24T11:33:27.040Z,10.30
2022-10-24T11:39:01.764Z,6.18
2022-10-24T11:41:46.649Z,5.80
2022-10-24T11:44:31.565Z,8.13
2022-10-24T11:47:24.060Z,5.28
2022-10-24T11:50:07.072Z,7.10
2022-10-24T11:52:43.790Z,4.40
2022-10-24T11:55:20.724Z,8.40
2022-10-24T11:57:52.679Z,7.57
2022-10-24T12:00:24.565Z,16.35
2022-10-24T12:02:56.884Z,10.82
2022-10-24T12:05:30.226Z,11.02
2022-10-24T12:08:11.369Z,9.77
2022-10-24T12:11:06.009Z,8.63
2022-10-24T12:14:04.655Z,14.17
2022-10-24T12:17:08.241Z,11.60
2022-10-24T12:19:38.385Z,10.43
2022-10-24T12:22:05.989Z,4.40
2022-10-24T12:24:36.430Z,5.97
2022-10-24T12:27:07.051Z,7.40
2022-10-24T12:29:36.910Z,8.73
2022-10-24T12:32:24.410Z,10.38
2022-10-24T12:35:25.395Z,7.30
2022-10-24T12:37:47.110Z,5.30
2022-10-24T12:40:47.966Z,11.35
2022-10-24T12:43:42.984Z,11.02
2022-10-24T12:46:21.710Z,14.30
2022-10-24T12:48:58.853Z,8.48
2022-10-24T12:51:41.262Z,27.95
2022-10-24T12:54:15.119Z,15.27
2022-10-24T12:56:51.281Z,11.73
2022-10-24T12:59:20.114Z,13.70
2022-10-24T13:01:49.237Z,14.60
2022-10-24T13:04:38.464Z,9.90
2022-10-24T13:07:23.684Z,8.55
2022-10-24T13:12:56.011Z,22.05
2022-10-24T13:15:45.899Z,13.50
2022-10-24T13:18:39.822Z,7.95
2022-10-24T13:21:45.515Z,10.93
2022-10-24T13:24:16.337Z,17.23
2022-10-24T13:26:44.666Z,18.90
2022-10-24T13:29:34.321Z,14.00
2022-10-24T13:32:03.692Z,13.68
2022-10-24T13:34:54.456Z,13.70
2022-10-24T13:37:51.273Z,12.18
2022-10-24T13:40:31.355Z,14.98
2022-10-24T13:43:07.695Z,19.52
2022-10-24T13:45:49.733Z,17.30
2022-10-24T13:48:22.203Z,15.80
2022-10-24T13:51:14.975Z,18.98
2022-10-24T13:53:52.376Z,14.35
2022-10-24T13:56:19.873Z,20.17
2022-10-24T13:58:46.809Z,15.57
2022-10-24T14:01:21.629Z,10.20
2022-10-24T14:03:49.808Z,18.65
2022-10-24T14:06:16.660Z,10.40
2022-10-24T14:09:00.867Z,16.45
2022-10-24T14:11:32.692Z,17.42
2022-10-24T14:14:07.128Z,5.50
2022-10-24T14:16:35.761Z,14.20
2022-10-24T14:19:25.592Z,11.02
2022-10-24T14:21:56.403Z,18.10
2022-10-24T14:24:23.463Z,18.17
2022-10-24T14:26:53.361Z,11.98
2022-10-24T14:29:25.081Z,18.88
2022-10-24T14:32:04.776Z,12.68
2022-10-24T14:34:36.338Z,24.05
2022-10-24T14:37:06.687Z,22.80
2022-10-24T14:39:33.926Z,26.35
2022-10-24T14:42:01.739Z,16.60
2022-10-24T14:44:29.211Z,22.83
2022-10-24T14:47:06.217Z,20.83
2022-10-24T14:49:36.830Z,23.88
2022-10-24T14:52:20.564Z,22.63
2022-10-24T14:54:55.252Z,23.25
2022-10-24T14:57:23.792Z,10.85
2022-10-24T14:59:52.929Z,12.45
2022-10-24T15:02:43.509Z,18.92
2022-10-24T15:05:13.205Z,14.60
2022-10-24T15:07:44.966Z,16.85
2022-10-24T15:10:28.166Z,14.60
2022-10-24T15:13:02.605Z,15.18
2022-10-24T15:15:55.173Z,12.20
2022-10-24T15:18:26.133Z,20.85
2022-10-24T15:20:59.089Z,7.82
2022-10-24T15:23:31.793Z,16.63
2022-10-24T15:26:12.632Z,9.32
2022-10-24T15:29:02.396Z,21.35
2022-10-24T15:31:30.863Z,8.38
2022-10-24T15:33:57.552Z,16.38
2022-10-24T15:36:29.571Z,19.73
2022-10-24T15:39:06.813Z,16.80
2022-10-24T15:41:34.009Z,13.60
2022-10-24T15:44:01.940Z,20.58
2022-10-24T15:46:29.150Z,17.90
2022-10-24T15:48:55.820Z,21.17
2022-10-24T15:51:24.987Z,14.38
2022-10-24T15:53:52.788Z,15.65
2022-10-24T15:56:19.478Z,27.73
2022-10-24T15:58:46.131Z,20.42
2022-10-24T16:01:24.926Z,15.57
2022-10-24T16:03:51.803Z,16.40
2022-10-24T16:06:18.442Z,13.68
2022-10-24T16:08:45.171Z,24.80
2022-10-24T16:11:12.276Z,23.73
2022-10-24T16:13:39.336Z,18.27
2022-10-24T16:16:06.722Z,12.43
2022-10-24T16:18:33.407Z,19.77
2022-10-24T16:21:00.304Z,19.17
2022-10-24T16:23:27.590Z,17.42
2022-10-24T16:25:54.538Z,28.98
2022-10-24T16:28:23.930Z,18.25
2022-10-24T16:30:50.771Z,27.90
2022-10-24T16:33:20.133Z,13.95
2022-10-24T16:35:49.821Z,14.52
2022-10-24T16:38:17.044Z,18.40
2022-10-24T16:40:46.221Z,26.85
2022-10-24T16:43:15.696Z,15.23
2022-10-24T16:45:43.232Z,14.45
2022-10-24T16:48:11.073Z,11.00
2022-10-24T16:50:41.765Z,18.90
2022-10-24T16:53:09.024Z,14.80
2022-10-24T16:55:36.091Z,15.40
2022-10-24T16:58:03.204Z,11.48
2022-10-24T17:00:30.597Z,26.65
2022-10-24T17:02:58.166Z,48.58
2022-10-24T17:05:27.780Z,14.68
2022-10-24T17:07:55.129Z,14.40
2022-10-24T17:10:24.686Z,19.13
2022-10-24T17:12:52.225Z,19.92
2022-10-24T17:15:22.108Z,22.42
2022-10-24T17:17:49.753Z,18.52
2022-10-24T17:20:17.500Z,14.05
2022-10-24T17:22:46.570Z,17.33
2022-10-24T17:25:21.228Z,19.02
2022-10-24T17:27:49.461Z,22.27
2022-10-24T17:30:21.111Z,20.70
2022-10-24T17:32:48.324Z,16.48
2022-10-24T17:35:17.553Z,10.05
2022-10-24T17:38:02.124Z,13.07
2022-10-24T17:40:43.734Z,9.93
2022-10-24T17:43:17.667Z,17.65
2022-10-24T17:45:44.609Z,30.50
2022-10-24T17:48:11.457Z,18.17
2022-10-24T17:50:38.329Z,6.35
2022-10-24T17:53:05.093Z,14.68
2022-10-24T17:55:45.646Z,13.30
2022-10-24T17:58:16.849Z,9.07
2022-10-24T18:00:44.449Z,13.70
2022-10-24T18:03:11.503Z,3.92
2022-10-24T18:05:38.918Z,10.13
2022-10-24T18:08:07.680Z,3.53
2022-10-24T18:10:37.144Z,8.05
2022-10-24T18:13:03.875Z,16.60
2022-10-24T18:15:30.670Z,5.55
2022-10-24T18:17:57.319Z,1.70
2022-10-24T18:20:23.989Z,1.02
2022-10-24T18:22:50.952Z,5.85
2022-10-24T18:25:21.831Z,4.88
2022-10-24T18:27:50.414Z,4.10
2022-10-24T18:30:17.451Z,5.70
2022-10-24T18:32:44.663Z,10.23
2022-10-24T18:35:12.308Z,7.95
2022-10-24T18:37:39.442Z,4.90
2022-10-24T18:40:07.948Z,0.55
2022-10-24T18:43:07.545Z,3.03
2022-10-24T18:45:34.749Z,0.40
2022-10-24T18:48:01.889Z,2.85
2022-10-24T18:50:29.293Z,0.28
2022-10-24T18:53:08.391Z,4.90
2022-10-24T18:55:36.166Z,1.83
2022-10-24T18:58:03.955Z,3.92
2022-10-24T19:00:33.082Z,9.02
2022-10-24T19:03:37.007Z,5.25
2022-10-24T19:06:19.698Z,10.30
2022-10-24T19:08:46.544Z,6.28
2022-10-24T19:11:14.737Z,6.03
2022-10-24T19:13:42.874Z,6.45
2022-10-24T19:16:17.035Z,1.55
2022-10-24T19:18:53.791Z,0.52
2022-10-24T19:21:21.204Z,2.08
2022-10-24T19:23:48.413Z,1.75
2022-10-24T19:26:15.127Z,6.93
2022-10-24T19:28:41.845Z,9.82
2022-10-24T19:31:12.493Z,2.28
2022-10-24T19:33:41.317Z,0.63
2022-10-24T19:36:09.251Z,2.95
2022-10-24T19:38:35.949Z,0.45
2022-10-24T19:41:06.127Z,12.85
2022-10-24T19:43:32.860Z,3.42
2022-10-24T19:46:19.475Z,6.10
2022-10-24T19:48:50.445Z,1.95
2022-10-24T19:51:18.515Z,2.65
2022-10-24T19:53:46.244Z,0.85
2022-10-24T19:56:14.468Z,1.75
2022-10-24T19:58:42.381Z,3.97
2022-10-24T20:01:15.274Z,0.25
2022-10-24T20:03:44.333Z,1.67
2022-10-24T20:06:12.295Z,1.08
2022-10-24T20:08:39.565Z,3.35
2022-10-24T20:11:07.309Z,4.10
2022-10-24T20:13:34.195Z,5.68
2022-10-24T20:16:05.109Z,0.20
2022-10-24T20:18:33.798Z,6.13
2022-10-24T20:21:04.214Z,1.50
2022-10-24T20:23:31.732Z,0.10
2022-10-24T20:26:05.403Z,2.78
2022-10-24T20:28:37.453Z,3.38
2022-10-24T20:31:05.656Z,0.57
2022-10-24T20:33:32.342Z,3.97
2022-10-24T20:36:02.267Z,1.50
2022-10-24T20:38:29.412Z,3.78
2022-10-24T20:41:02.004Z,4.38
2022-10-24T20:43:31.652Z,1.25
2022-10-24T20:45:58.417Z,9.63
2022-10-24T20:48:25.110Z,3.40
2022-10-24T20:50:51.736Z,4.28
2022-10-24T20:53:20.265Z,8.93
2022-10-24T20:55:46.857Z,7.28
2022-10-24T20:58:13.681Z,1.75
2022-10-24T21:03:14.388Z,0.10
2022-10-24T21:05:41.069Z,3.40
2022-10-24T21:08:08.127Z,0.47
2022-10-24T21:10:34.770Z,4.72
2022-10-24T21:13:01.340Z,0.52
2022-10-24T21:15:27.962Z,0.98
2022-10-24T21:17:54.611Z,3.78
2022-10-24T21:20:21.231Z,1.95
2022-10-24T21:22:47.853Z,1.80
2022-10-24T21:25:14.563Z,3.40
2022-10-24T21:27:41.224Z,2.17
2022-10-24T21:30:13.567Z,0.77
2022-10-24T21:32:41.271Z,2.05
2022-10-24T21:35:08.075Z,3.63
2022-10-24T21:37:34.848Z,0.10
2022-10-24T21:40:01.539Z,3.30
2022-10-24T21:42:30.272Z,2.35
2022-10-24T21:44:57.054Z,6.13
2022-10-24T21:47:23.759Z,5.32
2022-10-24T21:49:50.349Z,2.17
2022-10-24T21:52:17.078Z,3.40
2022-10-24T21:54:43.732Z,1.83
2022-10-24T21:57:10.391Z,7.68
2022-10-24T21:59:38.966Z,1.35
2022-10-24T22:02:05.859Z,6.18
2022-10-24T22:04:32.602Z,1.65
2022-10-24T22:06:59.217Z,0.75
2022-10-24T22:09:26.304Z,6.53
2022-10-24T22:11:55.340Z,0.20
2022-10-24T22:14:22.122Z,0.35
2022-10-24T22:16:48.772Z,2.75
2022-10-24T22:19:15.682Z,2.17
2022-10-24T22:21:45.545Z,8.40
2022-10-24T22:24:18.550Z,11.50
2022-10-24T22:26:45.557Z,3.70
2022-10-24T22:29:15.879Z,0.43
2022-10-24T22:31:43.510Z,1.20
2022-10-24T22:34:16.434Z,6.32
2022-10-24T22:36:47.583Z,8.15
2022-10-24T22:39:25.069Z,2.30
2022-10-24T22:41:52.250Z,1.05
2022-10-24T22:44:20.882Z,6.90
2022-10-24T22:47:28.615Z,0.40
2022-10-24T22:50:32.767Z,3.63
2022-10-24T22:52:59.774Z,1.25
2022-10-24T22:55:37.645Z,10.30
2022-10-24T22:58:04.692Z,1.02
2022-10-24T23:00:31.703Z,6.22
2022-10-24T23:03:11.791Z,5.82
2022-10-24T23:05:47.585Z,8.98
2022-10-24T23:08:44.757Z,6.10
2022-10-24T23:11:13.246Z,3.90
2022-10-24T23:13:41.685Z,6.88
2022-10-24T23:16:21.493Z,4.05
2022-10-24T23:18:48.343Z,4.07
2022-10-24T23:21:39.618Z,2.92
2022-10-24T23:24:15.260Z,2.40
2022-10-24T23:27:13.302Z,1.40
2022-10-24T23:29:45.032Z,2.30
2022-10-24T23:32:26.822Z,0.30
2022-10-24T23:34:55.175Z,3.50
2022-10-24T23:37:25.951Z,2.00
2022-10-24T23:39:52.913Z,2.20
2022-10-24T23:42:19.812Z,0.70
2022-10-24T23:44:47.017Z,5.53
2022-10-24T23:47:36.328Z,1.85
2022-10-24T23:50:29.026Z,3.20
2022-10-24T23:53:19.607Z,0.55
2022-10-24T23:55:46.642Z,3.10
2022-10-24T23:58:13.301Z,2.20
